Terminal Aerodrome Forecast
Issued by NWS

Home | Current Version | Previous Version | Graphics & Text | Print | Product List | Glossary On
Versions: 1 2 3 4 5 6 7 8 9 10 11 12 13 14 15 16 17
000
FTUS43 KMPX 250952 AAA
TAFRNH
TAF AMD
KRNH 250952Z 2510/2606 11002KT 4SM BR SCT005 BKN025
      TEMPO 2510/2514 2SM BR BKN005
     FM251400 13006KT P6SM BKN025 BKN050
     FM251800 16009KT P6SM BKN050=

USA.gov is the U.S. government's official web portal to all federal, state and local government web resources and services.